createdAt,value
2022-09-15T00:01:00.880Z,100387.31
2022-09-15T00:03:28.452Z,100388.53
2022-09-15T00:05:55.443Z,100386.44
2022-09-15T00:08:22.509Z,100384.19
2022-09-15T00:10:54.408Z,100390.25
2022-09-15T00:13:22.070Z,100389.41
2022-09-15T00:15:48.997Z,100392.56
2022-09-15T00:18:15.438Z,100388.59
2022-09-15T00:20:43.693Z,100388.16
2022-09-15T00:23:12.320Z,100389.44
2022-09-15T00:25:44.627Z,100392.81
2022-09-15T00:28:11.802Z,100392.38
2022-09-15T00:30:46.740Z,100386.53
2022-09-15T00:33:14.477Z,100389.50
2022-09-15T00:35:42.834Z,100389.22
2022-09-15T00:38:10.700Z,100387.78
2022-09-15T00:40:47.812Z,100387.38
2022-09-15T00:43:16.315Z,100381.72
2022-09-15T00:45:42.946Z,100389.06
2022-09-15T00:48:17.186Z,100392.38
2022-09-15T00:50:47.997Z,100391.13
2022-09-15T00:53:16.069Z,100389.84
2022-09-15T00:55:47.359Z,100386.72
2022-09-15T00:58:29.054Z,100384.19
2022-09-15T01:00:58.572Z,100383.16
2022-09-15T01:03:27.093Z,100383.53
2022-09-15T01:06:01.874Z,100391.28
2022-09-15T01:08:54.001Z,100390.25
2022-09-15T01:11:20.750Z,100389.81
2022-09-15T01:13:47.091Z,100387.34
2022-09-15T01:16:32.076Z,100388.59
2022-09-15T01:19:26.156Z,100389.00
2022-09-15T01:22:04.620Z,100386.66
2022-09-15T01:24:44.981Z,100391.50
2022-09-15T01:27:42.004Z,100384.63
2022-09-15T01:30:21.271Z,100391.28
2022-09-15T01:33:14.661Z,100396.09
2022-09-15T01:36:05.452Z,100395.03
2022-09-15T01:38:49.325Z,100397.09
2022-09-15T01:41:26.417Z,100392.28
2022-09-15T01:44:12.908Z,100396.94
2022-09-15T01:46:47.162Z,100392.78
2022-09-15T01:49:18.556Z,100383.78
2022-09-15T01:51:50.701Z,100383.16
2022-09-15T01:54:21.567Z,100386.28
2022-09-15T01:56:48.197Z,100386.28
2022-09-15T01:59:14.621Z,100382.72
2022-09-15T02:01:50.193Z,100394.22
2022-09-15T02:04:29.637Z,100388.94
2022-09-15T02:07:47.733Z,100384.56
2022-09-15T02:10:19.115Z,100390.41
2022-09-15T02:12:53.989Z,100391.25
2022-09-15T02:15:36.865Z,100397.69
2022-09-15T02:18:08.420Z,100399.53
2022-09-15T02:20:38.917Z,100396.88
2022-09-15T02:23:16.074Z,100402.94
2022-09-15T02:25:51.618Z,100393.69
2022-09-15T02:28:23.966Z,100387.97
2022-09-15T02:30:53.418Z,100393.25
2022-09-15T02:33:24.143Z,100390.31
2022-09-15T02:35:52.334Z,100388.88
2022-09-15T02:38:20.045Z,100385.25
2022-09-15T02:40:47.917Z,100383.56
2022-09-15T02:43:16.868Z,100382.31
2022-09-15T02:45:43.765Z,100389.69
2022-09-15T02:48:10.300Z,100390.06
2022-09-15T02:50:38.917Z,100395.97
2022-09-15T02:53:05.719Z,100394.16
2022-09-15T02:55:32.275Z,100403.09
2022-09-15T02:57:59.618Z,100406.50
2022-09-15T03:00:28.384Z,100405.84
2022-09-15T03:02:56.303Z,100409.00
2022-09-15T03:05:31.863Z,100404.41
2022-09-15T03:07:58.360Z,100400.22
2022-09-15T03:10:26.132Z,100403.41
2022-09-15T03:12:54.123Z,100408.44
2022-09-15T03:15:23.490Z,100406.97
2022-09-15T03:17:50.856Z,100409.06
2022-09-15T03:20:20.343Z,100414.06
2022-09-15T03:22:47.795Z,100416.38
2022-09-15T03:25:14.341Z,100416.72
2022-09-15T03:27:40.771Z,100411.34
2022-09-15T03:30:08.059Z,100412.16
2022-09-15T03:32:34.565Z,100413.41
2022-09-15T03:35:00.948Z,100415.75
2022-09-15T03:37:28.125Z,100416.19
2022-09-15T03:39:54.714Z,100418.47
2022-09-15T03:42:21.402Z,100418.25
2022-09-15T03:44:47.792Z,100420.34
2022-09-15T03:47:14.211Z,100418.88
2022-09-15T03:49:40.599Z,100419.72
2022-09-15T03:52:06.952Z,100419.25
2022-09-15T03:54:34.943Z,100415.69
2022-09-15T03:57:01.559Z,100412.75
2022-09-15T03:59:27.895Z,100409.84
2022-09-15T04:01:54.384Z,100418.56
2022-09-15T04:04:20.876Z,100422.16
2022-09-15T04:06:47.283Z,100417.00
2022-09-15T04:09:13.725Z,100426.19
2022-09-15T04:11:40.547Z,100427.88
2022-09-15T04:14:06.933Z,100431.00
2022-09-15T04:16:33.839Z,100430.38
2022-09-15T04:19:00.385Z,100429.53
2022-09-15T04:21:26.773Z,100431.47
2022-09-15T04:23:54.013Z,100427.66
2022-09-15T04:26:20.331Z,100427.88
2022-09-15T04:28:46.866Z,100429.75
2022-09-15T04:31:15.409Z,100422.84
2022-09-15T04:33:43.185Z,100418.25
2022-09-15T04:36:13.268Z,100415.06
2022-09-15T04:38:39.633Z,100414.91
2022-09-15T04:41:06.216Z,100410.66
2022-09-15T04:43:33.506Z,100405.25
2022-09-15T04:45:59.985Z,100405.44
2022-09-15T04:48:26.999Z,100401.25
2022-09-15T04:50:53.644Z,100407.97
2022-09-15T04:53:20.665Z,100405.03
2022-09-15T04:55:47.048Z,100413.19
2022-09-15T04:58:13.428Z,100415.06
2022-09-15T05:00:43.351Z,100411.09
2022-09-15T05:03:11.158Z,100416.31
2022-09-15T05:05:38.093Z,100416.78
2022-09-15T05:08:04.606Z,100411.72
2022-09-15T05:10:31.302Z,100418.66
2022-09-15T05:12:57.638Z,100423.91
2022-09-15T05:15:24.322Z,100421.75
2022-09-15T05:17:51.209Z,100424.06
2022-09-15T05:20:17.689Z,100422.16
2022-09-15T05:22:44.576Z,100423.44
2022-09-15T05:25:11.300Z,100419.72
2022-09-15T05:27:39.283Z,100424.31
2022-09-15T05:30:35.203Z,100424.94
2022-09-15T05:32:53.820Z,100423.91
2022-09-15T05:35:20.197Z,100422.22
2022-09-15T05:37:46.589Z,100422.22
2022-09-15T05:40:13.063Z,100417.41
2022-09-15T05:42:39.822Z,100425.78
2022-09-15T05:45:06.933Z,100426.03
2022-09-15T05:47:33.386Z,100435.00
2022-09-15T05:49:59.706Z,100436.03
2022-09-15T05:52:26.074Z,100437.91
2022-09-15T05:54:56.942Z,100433.78
2022-09-15T05:57:25.276Z,100438.53
2022-09-15T05:59:51.645Z,100440.69
2022-09-15T06:02:18.152Z,100438.78
2022-09-15T06:04:44.630Z,100445.97
2022-09-15T06:07:11.077Z,100447.66
2022-09-15T06:09:38.078Z,100448.69
2022-09-15T06:12:04.956Z,100445.34
2022-09-15T06:14:31.311Z,100450.38
2022-09-15T06:16:57.660Z,100448.72
2022-09-15T06:19:24.054Z,100452.56
2022-09-15T06:21:50.981Z,100452.16
2022-09-15T06:24:17.401Z,100461.22
2022-09-15T06:26:44.093Z,100457.25
2022-09-15T06:29:13.448Z,100461.59
2022-09-15T06:31:40.490Z,100454.69
2022-09-15T06:34:06.942Z,100466.22
2022-09-15T06:36:33.320Z,100460.00
2022-09-15T06:38:59.733Z,100472.72
2022-09-15T06:41:38.167Z,100468.53
2022-09-15T06:44:13.707Z,100470.66
2022-09-15T06:46:40.066Z,100470.25
2022-09-15T06:49:06.884Z,100477.81
2022-09-15T06:51:35.580Z,100477.63
2022-09-15T06:54:03.032Z,100470.31
2022-09-15T06:56:30.986Z,100480.78
2022-09-15T06:59:00.383Z,100483.09
2022-09-15T07:01:29.940Z,100486.84
2022-09-15T07:04:01.127Z,100487.66
2022-09-15T07:06:29.226Z,100500.22
2022-09-15T07:08:56.596Z,100508.22
2022-09-15T07:11:22.948Z,100501.53
2022-09-15T07:13:49.637Z,100497.78
2022-09-15T07:16:16.627Z,100495.22
2022-09-15T07:18:43.673Z,100506.59
2022-09-15T07:21:16.137Z,100499.25
2022-09-15T07:23:43.451Z,100500.28
2022-09-15T07:26:09.795Z,100499.66
2022-09-15T07:28:36.947Z,100498.63
2022-09-15T07:31:05.971Z,100502.22
2022-09-15T07:33:33.708Z,100506.81
2022-09-15T07:36:05.431Z,100502.84
2022-09-15T07:38:31.806Z,100511.88
2022-09-15T07:41:05.737Z,100501.78
2022-09-15T07:43:33.084Z,100509.78
2022-09-15T07:46:00.587Z,100512.03
2022-09-15T07:48:27.784Z,100516.88
2022-09-15T07:50:54.216Z,100519.59
2022-09-15T07:53:20.881Z,100519.81
2022-09-15T07:55:53.319Z,100522.75
2022-09-15T07:58:20.054Z,100526.53
2022-09-15T08:00:47.585Z,100535.50
2022-09-15T08:03:14.609Z,100533.59
2022-09-15T08:05:45.243Z,100537.56
2022-09-15T08:08:12.092Z,100549.69
2022-09-15T08:10:41.040Z,100547.00
2022-09-15T08:13:07.482Z,100546.38
2022-09-15T08:15:36.715Z,100548.34
2022-09-15T08:18:03.721Z,100549.97
2022-09-15T08:20:31.421Z,100554.97
2022-09-15T08:22:57.857Z,100555.81
2022-09-15T08:25:24.435Z,100560.16
2022-09-15T08:27:52.820Z,100562.06
2022-09-15T08:30:19.620Z,100557.41
2022-09-15T08:32:46.600Z,100571.31
2022-09-15T08:35:13.359Z,100564.84
2022-09-15T08:37:39.940Z,100575.97
2022-09-15T08:40:06.971Z,100570.09
2022-09-15T08:42:33.428Z,100574.50
2022-09-15T08:45:05.455Z,100578.69
2022-09-15T08:47:36.156Z,100580.78
2022-09-15T08:50:10.843Z,100579.72
2022-09-15T08:52:51.835Z,100587.22
2022-09-15T08:55:35.006Z,100591.91
2022-09-15T08:58:01.443Z,100593.53
2022-09-15T09:00:28.618Z,100597.81
2022-09-15T09:03:18.937Z,100602.63
2022-09-15T09:05:54.105Z,100596.88
2022-09-15T09:08:45.655Z,100599.31
2022-09-15T09:11:33.811Z,100604.00
2022-09-15T09:14:13.929Z,100604.22
2022-09-15T09:16:54.744Z,100603.34
2022-09-15T09:19:33.186Z,100602.09
2022-09-15T09:22:21.787Z,100606.13
2022-09-15T09:24:55.078Z,100605.56
2022-09-15T09:27:28.800Z,100604.16
2022-09-15T09:30:10.884Z,100618.56
2022-09-15T09:32:46.226Z,100608.13
2022-09-15T09:35:39.824Z,100607.28
2022-09-15T09:38:10.011Z,100621.19
2022-09-15T09:40:37.341Z,100625.59
2022-09-15T09:43:03.761Z,100622.22
2022-09-15T09:45:30.258Z,100624.72
2022-09-15T09:48:04.441Z,100618.47
2022-09-15T09:50:38.989Z,100610.06
2022-09-15T09:53:28.743Z,100621.81
2022-09-15T09:56:14.318Z,100618.00
2022-09-15T09:58:40.752Z,100615.72
2022-09-15T10:01:16.482Z,100611.63
2022-09-15T10:03:43.304Z,100610.31
2022-09-15T10:06:16.571Z,100612.28
2022-09-15T10:08:57.931Z,100618.13
2022-09-15T10:11:41.774Z,100613.94
2022-09-15T10:14:27.219Z,100605.78
2022-09-15T10:17:13.872Z,100601.56
2022-09-15T10:19:56.428Z,100606.06
2022-09-15T10:22:38.413Z,100604.25
2022-09-15T10:25:39.569Z,100596.16
2022-09-15T10:28:16.676Z,100596.25
2022-09-15T10:31:08.044Z,100595.63
2022-09-15T10:33:36.281Z,100597.84
2022-09-15T10:36:19.100Z,100596.34
2022-09-15T10:38:50.931Z,100594.22
2022-09-15T10:41:27.797Z,100600.19
2022-09-15T10:44:30.831Z,100593.06
2022-09-15T10:47:12.303Z,100597.13
2022-09-15T10:50:12.402Z,100596.53
2022-09-15T10:52:57.596Z,100580.03
2022-09-15T10:55:51.689Z,100578.47
2022-09-15T10:58:56.754Z,100577.06
2022-09-15T11:01:28.896Z,100575.78
2022-09-15T11:04:22.839Z,100578.59
2022-09-15T11:07:13.759Z,100583.72
2022-09-15T11:09:57.583Z,100575.63
2022-09-15T11:12:48.355Z,100581.34
2022-09-15T11:15:28.019Z,100574.44
2022-09-15T11:18:08.710Z,100572.91
2022-09-15T11:21:19.681Z,100582.22
2022-09-15T11:23:52.670Z,100576.47
2022-09-15T11:26:33.329Z,100576.88
2022-09-15T11:29:07.268Z,100586.88
2022-09-15T11:31:39.524Z,100583.22
2022-09-15T11:34:11.988Z,100586.94
2022-09-15T11:36:44.825Z,100592.63
2022-09-15T11:39:22.094Z,100577.72
2022-09-15T11:42:01.307Z,100578.50
2022-09-15T11:44:47.853Z,100577.97
2022-09-15T11:47:19.317Z,100569.94
2022-09-15T11:49:48.663Z,100566.47
2022-09-15T11:52:42.879Z,100569.50
2022-09-15T11:55:28.320Z,100559.56
2022-09-15T11:58:22.147Z,100564.16
2022-09-15T12:01:10.813Z,100568.94
2022-09-15T12:04:02.230Z,100562.91
2022-09-15T12:06:48.691Z,100565.91
2022-09-15T12:09:20.441Z,100552.41
2022-09-15T12:11:53.340Z,100551.72
2022-09-15T12:14:34.776Z,100544.81
2022-09-15T12:17:03.764Z,100546.47
2022-09-15T12:19:36.485Z,100565.50
2022-09-15T12:22:19.396Z,100561.28
2022-09-15T12:25:03.390Z,100553.19
2022-09-15T12:27:30.319Z,100563.09
2022-09-15T12:29:59.625Z,100554.38
2022-09-15T12:32:35.272Z,100552.25
2022-09-15T12:35:19.981Z,100550.06
2022-09-15T12:37:48.958Z,100549.72
2022-09-15T12:40:30.727Z,100541.56
2022-09-15T12:42:57.554Z,100541.19
2022-09-15T12:45:27.308Z,100541.56
2022-09-15T12:48:07.208Z,100533.81
2022-09-15T12:50:39.265Z,100545.03
2022-09-15T12:53:20.827Z,100542.09
2022-09-15T12:56:10.378Z,100541.19
2022-09-15T12:58:44.303Z,100551.81
2022-09-15T13:01:22.762Z,100543.63
2022-09-15T13:03:55.332Z,100550.44
2022-09-15T13:06:26.697Z,100569.19
2022-09-15T13:08:54.690Z,100556.25
2022-09-15T13:14:35.543Z,100562.00
2022-09-15T13:17:16.836Z,100564.53
2022-09-15T13:19:47.124Z,100562.13
2022-09-15T13:22:35.668Z,100574.97
2022-09-15T13:25:11.251Z,100583.84
2022-09-15T13:27:41.911Z,100588.28
2022-09-15T13:30:17.249Z,100595.09
2022-09-15T13:33:10.483Z,100591.75
2022-09-15T13:35:52.336Z,100592.72
2022-09-15T13:38:37.249Z,100591.88
2022-09-15T13:41:16.469Z,100600.59
2022-09-15T13:44:04.845Z,100607.47
2022-09-15T13:46:39.307Z,100603.56
2022-09-15T13:49:38.409Z,100596.63
2022-09-15T13:52:22.149Z,100599.41
2022-09-15T13:55:26.414Z,100591.78
2022-09-15T14:00:57.347Z,100609.09
2022-09-15T14:03:46.776Z,100600.59
2022-09-15T14:06:33.561Z,100599.88
2022-09-15T14:09:06.688Z,100601.66
2022-09-15T14:11:36.611Z,100597.00
2022-09-15T14:14:10.126Z,100602.28
2022-09-15T14:16:38.047Z,100602.47
2022-09-15T14:19:26.404Z,100599.66
2022-09-15T14:21:58.289Z,100608.44
2022-09-15T14:24:32.447Z,100598.50
2022-09-15T14:27:07.269Z,100604.66
2022-09-15T14:29:38.815Z,100607.38
2022-09-15T14:32:05.530Z,100596.47
2022-09-15T14:34:36.215Z,100593.69
2022-09-15T14:37:06.787Z,100587.34
2022-09-15T14:39:34.163Z,100589.72
2022-09-15T14:42:21.355Z,100596.31
2022-09-15T14:47:35.576Z,100609.94
2022-09-15T14:50:15.764Z,100612.25
2022-09-15T14:52:49.888Z,100609.41
2022-09-15T14:55:24.728Z,100613.41
2022-09-15T14:58:14.723Z,100619.50
2022-09-15T15:00:56.039Z,100614.75
2022-09-15T15:03:40.397Z,100613.00
2022-09-15T15:06:34.596Z,100616.59
2022-09-15T15:09:17.957Z,100614.44
2022-09-15T15:11:45.051Z,100613.75
2022-09-15T15:14:13.290Z,100613.69
2022-09-15T15:16:56.954Z,100621.56
2022-09-15T15:19:35.315Z,100613.53
2022-09-15T15:22:13.645Z,100602.88
2022-09-15T15:24:46.110Z,100606.13
2022-09-15T15:27:24.663Z,100603.72
2022-09-15T15:29:51.783Z,100610.38
2022-09-15T15:32:23.173Z,100614.34
2022-09-15T15:34:55.837Z,100610.81
2022-09-15T15:37:33.869Z,100601.47
2022-09-15T15:40:05.217Z,100606.75
2022-09-15T15:42:31.940Z,100615.63
2022-09-15T15:45:24.778Z,100613.63
2022-09-15T15:47:51.654Z,100614.41
2022-09-15T15:50:21.116Z,100619.53
2022-09-15T15:52:49.097Z,100626.09
2022-09-15T15:55:17.280Z,100619.34
2022-09-15T15:57:44.524Z,100615.88
2022-09-15T16:00:21.328Z,100630.91
2022-09-15T16:02:48.287Z,100614.69
2022-09-15T16:05:14.795Z,100618.31
2022-09-15T16:07:42.845Z,100624.91
2022-09-15T16:10:16.113Z,100620.81
2022-09-15T16:12:43.249Z,100619.59
2022-09-15T16:15:15.253Z,100618.41
2022-09-15T16:17:45.934Z,100619.03
2022-09-15T16:20:15.885Z,100618.13
2022-09-15T16:22:42.785Z,100618.00
2022-09-15T16:25:15.798Z,100612.16
2022-09-15T16:27:42.241Z,100622.03
2022-09-15T16:30:12.016Z,100612.78
2022-09-15T16:32:40.067Z,100612.78
2022-09-15T16:35:39.832Z,100621.63
2022-09-15T16:38:07.795Z,100619.13
2022-09-15T16:40:36.851Z,100624.75
2022-09-15T16:43:04.745Z,100622.47
2022-09-15T16:45:39.810Z,100624.34
2022-09-15T16:48:08.161Z,100626.63
2022-09-15T16:50:35.532Z,100626.25
2022-09-15T16:53:02.325Z,100630.28
2022-09-15T16:55:35.884Z,100637.22
2022-09-15T16:58:04.361Z,100639.75
2022-09-15T17:00:33.022Z,100638.38
2022-09-15T17:02:59.594Z,100642.81
2022-09-15T17:05:30.915Z,100649.13
2022-09-15T17:07:57.310Z,100652.94
2022-09-15T17:10:24.392Z,100650.22
2022-09-15T17:12:51.658Z,100651.34
2022-09-15T17:15:22.007Z,100646.75
2022-09-15T17:17:48.720Z,100652.38
2022-09-15T17:20:15.500Z,100650.91
2022-09-15T17:22:41.998Z,100657.22
2022-09-15T17:25:19.436Z,100660.22
2022-09-15T17:27:45.959Z,100655.16
2022-09-15T17:30:13.104Z,100650.09
2022-09-15T17:32:40.086Z,100654.53
2022-09-15T17:35:24.489Z,100645.31
2022-09-15T17:37:51.976Z,100649.72
2022-09-15T17:40:20.645Z,100643.66
2022-09-15T17:42:48.064Z,100653.06
2022-09-15T17:45:20.739Z,100646.78
2022-09-15T17:47:47.843Z,100650.97
2022-09-15T17:50:15.709Z,100662.75
2022-09-15T17:52:42.463Z,100670.09
2022-09-15T17:55:13.115Z,100669.91
2022-09-15T17:57:39.508Z,100673.22
2022-09-15T18:00:07.045Z,100665.88
2022-09-15T18:02:33.450Z,100671.34
2022-09-15T18:05:00.143Z,100669.03
2022-09-15T18:07:26.488Z,100679.50
2022-09-15T18:09:52.881Z,100675.72
2022-09-15T18:12:19.401Z,100677.81
2022-09-15T18:14:45.742Z,100678.00
2022-09-15T18:17:12.222Z,100678.44
2022-09-15T18:19:39.338Z,100681.31
2022-09-15T18:22:06.020Z,100684.72
2022-09-15T18:24:32.372Z,100688.41
2022-09-15T18:26:58.728Z,100687.56
2022-09-15T18:29:25.111Z,100689.66
2022-09-15T18:31:51.684Z,100687.34
2022-09-15T18:34:18.289Z,100695.56
2022-09-15T18:36:44.758Z,100702.13
2022-09-15T18:39:11.906Z,100707.50
2022-09-15T18:41:38.964Z,100718.22
2022-09-15T18:44:05.735Z,100720.28
2022-09-15T18:46:32.121Z,100725.28
2022-09-15T18:48:59.156Z,100715.72
2022-09-15T18:51:34.950Z,100727.84
2022-09-15T18:54:11.939Z,100729.09
2022-09-15T18:56:38.498Z,100732.94
2022-09-15T18:59:05.010Z,100729.25
2022-09-15T19:01:31.399Z,100728.66
2022-09-15T19:03:58.311Z,100726.91
2022-09-15T19:06:24.689Z,100717.34
2022-09-15T19:08:51.092Z,100722.72
2022-09-15T19:11:17.507Z,100725.91
2022-09-15T19:13:44.022Z,100717.72
2022-09-15T19:16:10.544Z,100720.06
2022-09-15T19:18:37.413Z,100719.44
2022-09-15T19:21:11.672Z,100713.00
2022-09-15T19:23:39.162Z,100713.56
2022-09-15T19:26:08.921Z,100711.28
2022-09-15T19:28:35.444Z,100717.50
2022-09-15T19:31:01.968Z,100729.53
2022-09-15T19:33:28.471Z,100726.75
2022-09-15T19:36:10.565Z,100733.06
2022-09-15T19:38:41.729Z,100735.69
2022-09-15T19:41:12.018Z,100736.06
2022-09-15T19:43:42.072Z,100743.41
2022-09-15T19:46:16.849Z,100740.53
2022-09-15T19:48:46.514Z,100737.75
2022-09-15T19:51:17.740Z,100732.72
2022-09-15T19:53:44.806Z,100734.56
2022-09-15T19:56:22.209Z,100737.38
2022-09-15T19:58:49.465Z,100735.03
2022-09-15T20:01:16.165Z,100745.53
2022-09-15T20:06:30.247Z,100745.91
2022-09-15T20:08:58.929Z,100753.31
2022-09-15T20:11:27.129Z,100756.41
2022-09-15T20:13:54.470Z,100754.00
2022-09-15T20:16:23.115Z,100753.09
2022-09-15T20:18:51.369Z,100763.97
2022-09-15T20:21:45.846Z,100749.22
2022-09-15T20:24:09.612Z,100751.47
2022-09-15T20:26:36.607Z,100754.13
2022-09-15T20:29:03.777Z,100748.28
2022-09-15T20:31:32.999Z,100738.44
2022-09-15T20:34:00.875Z,100745.16
2022-09-15T20:36:29.978Z,100746.31
2022-09-15T20:38:57.677Z,100741.25
2022-09-15T20:41:26.535Z,100737.56
2022-09-15T20:43:53.162Z,100747.84
2022-09-15T20:46:22.415Z,100748.44
2022-09-15T20:48:51.159Z,100746.00
2022-09-15T20:51:26.203Z,100754.63
2022-09-15T20:53:55.120Z,100757.66
2022-09-15T20:56:25.319Z,100757.66
2022-09-15T20:58:53.272Z,100750.72
2022-09-15T21:01:22.879Z,100752.88
2022-09-15T21:03:49.756Z,100756.91
2022-09-15T21:06:19.801Z,100754.09
2022-09-15T21:08:47.850Z,100757.75
2022-09-15T21:11:15.832Z,100766.19
2022-09-15T21:13:43.423Z,100758.19
2022-09-15T21:16:12.448Z,100768.78
2022-09-15T21:18:39.937Z,100763.28
2022-09-15T21:21:18.311Z,100766.00
2022-09-15T21:23:46.986Z,100760.00
2022-09-15T21:26:19.612Z,100755.78
2022-09-15T21:28:46.545Z,100765.38
2022-09-15T21:31:18.213Z,100763.38
2022-09-15T21:33:45.838Z,100758.09
2022-09-15T21:36:15.345Z,100764.84
2022-09-15T21:38:43.981Z,100771.41
2022-09-15T21:41:15.784Z,100768.03
2022-09-15T21:43:44.531Z,100773.28
2022-09-15T21:46:16.856Z,100774.22
2022-09-15T21:48:44.290Z,100771.50
2022-09-15T21:51:13.040Z,100777.06
2022-09-15T21:53:39.643Z,100778.25
2022-09-15T21:56:08.944Z,100776.38
2022-09-15T21:58:42.446Z,100778.56
2022-09-15T22:01:14.022Z,100770.28
2022-09-15T22:03:45.000Z,100770.59
2022-09-15T22:06:12.648Z,100769.09
2022-09-15T22:08:39.903Z,100774.72
2022-09-15T22:11:07.637Z,100778.28
2022-09-15T22:13:36.810Z,100775.44
2022-09-15T22:16:05.759Z,100782.75
2022-09-15T22:18:32.449Z,100785.16
2022-09-15T22:21:11.317Z,100785.94
2022-09-15T22:23:38.694Z,100788.16
2022-09-15T22:26:07.895Z,100779.84
2022-09-15T22:28:34.601Z,100778.56
2022-09-15T22:31:03.636Z,100787.31
2022-09-15T22:33:30.496Z,100784.94
2022-09-15T22:35:57.708Z,100779.94
2022-09-15T22:38:27.093Z,100776.38
2022-09-15T22:40:53.475Z,100768.78
2022-09-15T22:43:20.279Z,100763.56
2022-09-15T22:45:46.858Z,100763.56
2022-09-15T22:48:13.399Z,100749.63
2022-09-15T22:50:39.960Z,100749.59
2022-09-15T22:53:06.344Z,100743.72
2022-09-15T22:55:33.014Z,100733.22
2022-09-15T22:57:59.407Z,100729.06
2022-09-15T23:00:26.159Z,100738.00
2022-09-15T23:02:52.561Z,100737.13
2022-09-15T23:05:18.931Z,100740.91
2022-09-15T23:07:45.337Z,100739.31
2022-09-15T23:10:11.851Z,100742.84
2022-09-15T23:12:38.836Z,100751.50
2022-09-15T23:15:06.555Z,100752.69
2022-09-15T23:17:34.374Z,100743.06
2022-09-15T23:20:01.343Z,100746.13
2022-09-15T23:22:27.717Z,100746.59
2022-09-15T23:24:54.145Z,100742.31
2022-09-15T23:27:20.581Z,100743.88
2022-09-15T23:29:46.940Z,100744.28
2022-09-15T23:32:13.297Z,100739.66
2022-09-15T23:34:39.681Z,100757.94
2022-09-15T23:37:06.174Z,100762.31
2022-09-15T23:39:32.540Z,100754.53
2022-09-15T23:41:58.931Z,100748.94
2022-09-15T23:44:25.297Z,100746.13
2022-09-15T23:46:51.746Z,100741.91
2022-09-15T23:49:18.875Z,100736.75
2022-09-15T23:51:45.446Z,100743.97
2022-09-15T23:54:11.855Z,100737.22
2022-09-15T23:56:38.338Z,100745.09
2022-09-15T23:59:04.718Z,100745.91
